sensor_id;sensor_type;location;lat;lon;timestamp;P1;durP1;ratioP1;P2;durP2;ratioP2
22715;SDS011;11525;51.152;4.456;2023-09-12T00:00:54;19.70;;;13.07;;
22715;SDS011;11525;51.152;4.456;2023-09-12T00:03:20;21.05;;;12.55;;
22715;SDS011;11525;51.152;4.456;2023-09-12T00:05:50;17.75;;;12.88;;
22715;SDS011;11525;51.152;4.456;2023-09-12T00:08:21;19.38;;;12.32;;
22715;SDS011;11525;51.152;4.456;2023-09-12T00:10:47;14.63;;;12.18;;
22715;SDS011;11525;51.152;4.456;2023-09-12T00:13:22;20.63;;;13.65;;
22715;SDS011;11525;51.152;4.456;2023-09-12T00:15:48;23.38;;;14.05;;
22715;SDS011;11525;51.152;4.456;2023-09-12T00:18:14;21.15;;;13.68;;
22715;SDS011;11525;51.152;4.456;2023-09-12T00:20:39;18.40;;;15.07;;
22715;SDS011;11525;51.152;4.456;2023-09-12T00:23:05;23.25;;;15.15;;
22715;SDS011;11525;51.152;4.456;2023-09-12T00:25:31;22.70;;;15.02;;
22715;SDS011;11525;51.152;4.456;2023-09-12T00:27:56;18.33;;;14.25;;
22715;SDS011;11525;51.152;4.456;2023-09-12T00:30:22;19.20;;;14.52;;
22715;SDS011;11525;51.152;4.456;2023-09-12T00:32:48;18.05;;;13.82;;
22715;SDS011;11525;51.152;4.456;2023-09-12T00:35:13;21.75;;;14.05;;
22715;SDS011;11525;51.152;4.456;2023-09-12T00:37:39;22.17;;;13.65;;
22715;SDS011;11525;51.152;4.456;2023-09-12T00:40:05;22.40;;;15.70;;
22715;SDS011;11525;51.152;4.456;2023-09-12T00:42:31;19.65;;;15.73;;
22715;SDS011;11525;51.152;4.456;2023-09-12T00:44:57;27.25;;;19.25;;
22715;SDS011;11525;51.152;4.456;2023-09-12T00:47:23;29.50;;;20.05;;
22715;SDS011;11525;51.152;4.456;2023-09-12T00:49:49;36.70;;;25.13;;
22715;SDS011;11525;51.152;4.456;2023-09-12T00:52:16;37.22;;;24.27;;
22715;SDS011;11525;51.152;4.456;2023-09-12T00:54:43;37.10;;;23.90;;
22715;SDS011;11525;51.152;4.456;2023-09-12T00:57:08;36.65;;;26.40;;
22715;SDS011;11525;51.152;4.456;2023-09-12T00:59:34;39.67;;;26.88;;
22715;SDS011;11525;51.152;4.456;2023-09-12T01:02:00;47.78;;;31.35;;
22715;SDS011;11525;51.152;4.456;2023-09-12T01:04:27;49.42;;;32.40;;
22715;SDS011;11525;51.152;4.456;2023-09-12T01:06:54;47.50;;;32.72;;
22715;SDS011;11525;51.152;4.456;2023-09-12T01:09:21;48.28;;;33.05;;
22715;SDS011;11525;51.152;4.456;2023-09-12T01:11:46;59.42;;;35.78;;
22715;SDS011;11525;51.152;4.456;2023-09-12T01:14:12;56.42;;;36.00;;
22715;SDS011;11525;51.152;4.456;2023-09-12T01:16:38;59.47;;;39.15;;
22715;SDS011;11525;51.152;4.456;2023-09-12T01:19:03;62.03;;;38.38;;
22715;SDS011;11525;51.152;4.456;2023-09-12T01:30:16;60.67;;;40.42;;
22715;SDS011;11525;51.152;4.456;2023-09-12T01:32:43;62.45;;;40.95;;
22715;SDS011;11525;51.152;4.456;2023-09-12T01:35:09;63.65;;;41.05;;
22715;SDS011;11525;51.152;4.456;2023-09-12T01:37:34;64.85;;;41.15;;
22715;SDS011;11525;51.152;4.456;2023-09-12T01:40:00;66.05;;;42.00;;
22715;SDS011;11525;51.152;4.456;2023-09-12T01:42:30;66.70;;;42.47;;
22715;SDS011;11525;51.152;4.456;2023-09-12T01:45:01;74.40;;;46.28;;
22715;SDS011;11525;51.152;4.456;2023-09-12T01:47:29;68.75;;;43.88;;
22715;SDS011;11525;51.152;4.456;2023-09-12T01:49:56;73.57;;;45.50;;
22715;SDS011;11525;51.152;4.456;2023-09-12T01:52:24;65.70;;;42.72;;
22715;SDS011;11525;51.152;4.456;2023-09-12T01:54:51;87.70;;;49.00;;
22715;SDS011;11525;51.152;4.456;2023-09-12T01:57:18;78.57;;;45.88;;
22715;SDS011;11525;51.152;4.456;2023-09-12T01:59:49;77.20;;;49.75;;
22715;SDS011;11525;51.152;4.456;2023-09-12T02:02:15;73.25;;;46.50;;
22715;SDS011;11525;51.152;4.456;2023-09-12T02:04:41;84.63;;;49.15;;
22715;SDS011;11525;51.152;4.456;2023-09-12T02:07:17;78.35;;;47.85;;
22715;SDS011;11525;51.152;4.456;2023-09-12T02:09:43;69.93;;;44.25;;
22715;SDS011;11525;51.152;4.456;2023-09-12T02:12:09;72.05;;;44.20;;
22715;SDS011;11525;51.152;4.456;2023-09-12T02:14:34;69.43;;;42.70;;
22715;SDS011;11525;51.152;4.456;2023-09-12T02:17:00;66.63;;;41.83;;
22715;SDS011;11525;51.152;4.456;2023-09-12T02:19:26;65.03;;;42.30;;
22715;SDS011;11525;51.152;4.456;2023-09-12T02:21:51;87.95;;;48.88;;
22715;SDS011;11525;51.152;4.456;2023-09-12T02:24:17;79.53;;;46.72;;
22715;SDS011;11525;51.152;4.456;2023-09-12T02:26:46;75.53;;;48.10;;
22715;SDS011;11525;51.152;4.456;2023-09-12T02:29:12;81.63;;;48.00;;
22715;SDS011;11525;51.152;4.456;2023-09-12T02:31:37;91.72;;;51.42;;
22715;SDS011;11525;51.152;4.456;2023-09-12T02:34:03;82.40;;;49.22;;
22715;SDS011;11525;51.152;4.456;2023-09-12T02:36:28;90.65;;;53.08;;
22715;SDS011;11525;51.152;4.456;2023-09-12T02:38:54;96.35;;;52.17;;
22715;SDS011;11525;51.152;4.456;2023-09-12T02:41:20;81.15;;;49.83;;
22715;SDS011;11525;51.152;4.456;2023-09-12T02:43:45;86.80;;;50.58;;
22715;SDS011;11525;51.152;4.456;2023-09-12T02:46:11;84.22;;;48.22;;
22715;SDS011;11525;51.152;4.456;2023-09-12T02:48:37;77.32;;;48.72;;
22715;SDS011;11525;51.152;4.456;2023-09-12T02:51:02;87.00;;;49.90;;
22715;SDS011;11525;51.152;4.456;2023-09-12T02:53:28;77.78;;;51.03;;
22715;SDS011;11525;51.152;4.456;2023-09-12T02:55:54;77.20;;;48.25;;
22715;SDS011;11525;51.152;4.456;2023-09-12T02:58:20;86.28;;;52.22;;
22715;SDS011;11525;51.152;4.456;2023-09-12T03:00:45;85.65;;;50.03;;
22715;SDS011;11525;51.152;4.456;2023-09-12T03:03:11;78.95;;;48.35;;
22715;SDS011;11525;51.152;4.456;2023-09-12T03:05:37;75.13;;;47.15;;
22715;SDS011;11525;51.152;4.456;2023-09-12T03:08:02;69.88;;;44.60;;
22715;SDS011;11525;51.152;4.456;2023-09-12T03:10:29;77.82;;;50.33;;
22715;SDS011;11525;51.152;4.456;2023-09-12T03:12:54;84.35;;;51.80;;
22715;SDS011;11525;51.152;4.456;2023-09-12T03:15:20;78.55;;;50.40;;
22715;SDS011;11525;51.152;4.456;2023-09-12T03:17:46;84.38;;;51.72;;
22715;SDS011;11525;51.152;4.456;2023-09-12T03:20:11;81.93;;;50.20;;
22715;SDS011;11525;51.152;4.456;2023-09-12T03:22:37;75.60;;;45.33;;
22715;SDS011;11525;51.152;4.456;2023-09-12T03:25:03;70.50;;;44.65;;
22715;SDS011;11525;51.152;4.456;2023-09-12T03:27:29;75.93;;;46.63;;
22715;SDS011;11525;51.152;4.456;2023-09-12T03:29:55;76.50;;;46.05;;
22715;SDS011;11525;51.152;4.456;2023-09-12T03:32:21;83.15;;;48.83;;
22715;SDS011;11525;51.152;4.456;2023-09-12T03:34:46;83.65;;;48.70;;
22715;SDS011;11525;51.152;4.456;2023-09-12T03:37:12;73.40;;;42.88;;
22715;SDS011;11525;51.152;4.456;2023-09-12T03:39:38;82.57;;;51.08;;
22715;SDS011;11525;51.152;4.456;2023-09-12T03:42:04;71.78;;;47.33;;
22715;SDS011;11525;51.152;4.456;2023-09-12T03:44:29;76.90;;;45.15;;
22715;SDS011;11525;51.152;4.456;2023-09-12T03:46:55;88.57;;;51.95;;
22715;SDS011;11525;51.152;4.456;2023-09-12T03:49:21;85.35;;;50.88;;
22715;SDS011;11525;51.152;4.456;2023-09-12T03:51:47;79.35;;;46.90;;
22715;SDS011;11525;51.152;4.456;2023-09-12T03:54:13;76.22;;;48.08;;
22715;SDS011;11525;51.152;4.456;2023-09-12T03:56:38;78.78;;;49.30;;
22715;SDS011;11525;51.152;4.456;2023-09-12T03:59:04;78.43;;;49.95;;
22715;SDS011;11525;51.152;4.456;2023-09-12T04:01:30;77.15;;;48.55;;
22715;SDS011;11525;51.152;4.456;2023-09-12T04:03:55;78.53;;;48.67;;
22715;SDS011;11525;51.152;4.456;2023-09-12T04:06:21;81.82;;;47.47;;
22715;SDS011;11525;51.152;4.456;2023-09-12T04:08:47;79.60;;;48.67;;
22715;SDS011;11525;51.152;4.456;2023-09-12T04:11:12;76.18;;;46.63;;
22715;SDS011;11525;51.152;4.456;2023-09-12T04:13:38;73.53;;;45.05;;
22715;SDS011;11525;51.152;4.456;2023-09-12T04:16:04;75.03;;;46.67;;
22715;SDS011;11525;51.152;4.456;2023-09-12T04:18:29;72.93;;;46.22;;
22715;SDS011;11525;51.152;4.456;2023-09-12T04:20:55;72.35;;;45.80;;
22715;SDS011;11525;51.152;4.456;2023-09-12T04:23:22;81.78;;;48.20;;
22715;SDS011;11525;51.152;4.456;2023-09-12T04:25:49;87.50;;;48.38;;
22715;SDS011;11525;51.152;4.456;2023-09-12T04:28:15;85.72;;;50.08;;
22715;SDS011;11525;51.152;4.456;2023-09-12T04:30:40;80.43;;;47.50;;
22715;SDS011;11525;51.152;4.456;2023-09-12T04:33:06;72.68;;;45.60;;
22715;SDS011;11525;51.152;4.456;2023-09-12T04:35:35;83.07;;;49.35;;
22715;SDS011;11525;51.152;4.456;2023-09-12T04:38:01;81.30;;;47.92;;
22715;SDS011;11525;51.152;4.456;2023-09-12T04:40:28;71.45;;;44.72;;
22715;SDS011;11525;51.152;4.456;2023-09-12T04:42:53;79.30;;;47.58;;
22715;SDS011;11525;51.152;4.456;2023-09-12T04:45:19;69.78;;;42.78;;
22715;SDS011;11525;51.152;4.456;2023-09-12T04:47:45;76.18;;;45.75;;
22715;SDS011;11525;51.152;4.456;2023-09-12T04:50:11;63.05;;;40.30;;
22715;SDS011;11525;51.152;4.456;2023-09-12T04:52:39;81.35;;;47.10;;
22715;SDS011;11525;51.152;4.456;2023-09-12T04:55:05;93.60;;;56.67;;
22715;SDS011;11525;51.152;4.456;2023-09-12T04:57:31;85.20;;;48.00;;
22715;SDS011;11525;51.152;4.456;2023-09-12T04:59:58;75.85;;;44.17;;
22715;SDS011;11525;51.152;4.456;2023-09-12T05:02:24;80.07;;;47.40;;
22715;SDS011;11525;51.152;4.456;2023-09-12T05:04:50;73.68;;;44.17;;
22715;SDS011;11525;51.152;4.456;2023-09-12T05:07:16;74.75;;;43.47;;
22715;SDS011;11525;51.152;4.456;2023-09-12T05:09:42;76.50;;;45.85;;
22715;SDS011;11525;51.152;4.456;2023-09-12T05:12:07;73.80;;;45.58;;
22715;SDS011;11525;51.152;4.456;2023-09-12T05:14:33;69.10;;;44.72;;
22715;SDS011;11525;51.152;4.456;2023-09-12T05:16:59;63.80;;;41.60;;
22715;SDS011;11525;51.152;4.456;2023-09-12T05:19:26;68.25;;;42.80;;
22715;SDS011;11525;51.152;4.456;2023-09-12T05:21:52;66.05;;;42.60;;
22715;SDS011;11525;51.152;4.456;2023-09-12T05:24:18;65.63;;;40.58;;
22715;SDS011;11525;51.152;4.456;2023-09-12T05:26:43;67.07;;;43.25;;
22715;SDS011;11525;51.152;4.456;2023-09-12T05:29:09;64.18;;;40.47;;
22715;SDS011;11525;51.152;4.456;2023-09-12T05:31:35;62.72;;;41.17;;
22715;SDS011;11525;51.152;4.456;2023-09-12T05:34:01;62.70;;;40.15;;
22715;SDS011;11525;51.152;4.456;2023-09-12T05:36:26;56.10;;;38.08;;
22715;SDS011;11525;51.152;4.456;2023-09-12T05:38:52;61.92;;;40.67;;
22715;SDS011;11525;51.152;4.456;2023-09-12T05:41:18;64.13;;;39.80;;
22715;SDS011;11525;51.152;4.456;2023-09-12T05:43:44;64.95;;;42.13;;
22715;SDS011;11525;51.152;4.456;2023-09-12T05:46:09;62.30;;;40.35;;
22715;SDS011;11525;51.152;4.456;2023-09-12T05:48:35;63.35;;;39.90;;
22715;SDS011;11525;51.152;4.456;2023-09-12T05:51:01;58.97;;;39.10;;
22715;SDS011;11525;51.152;4.456;2023-09-12T05:53:27;60.60;;;38.10;;
22715;SDS011;11525;51.152;4.456;2023-09-12T05:55:52;58.45;;;38.63;;
22715;SDS011;11525;51.152;4.456;2023-09-12T05:58:18;60.25;;;37.75;;
22715;SDS011;11525;51.152;4.456;2023-09-12T06:00:44;62.65;;;41.00;;
22715;SDS011;11525;51.152;4.456;2023-09-12T06:03:13;57.10;;;39.13;;
22715;SDS011;11525;51.152;4.456;2023-09-12T06:05:39;69.50;;;42.42;;
22715;SDS011;11525;51.152;4.456;2023-09-12T06:08:05;64.28;;;41.47;;
22715;SDS011;11525;51.152;4.456;2023-09-12T06:10:31;67.55;;;41.55;;
22715;SDS011;11525;51.152;4.456;2023-09-12T06:12:57;63.70;;;40.42;;
22715;SDS011;11525;51.152;4.456;2023-09-12T06:15:22;64.45;;;40.58;;
22715;SDS011;11525;51.152;4.456;2023-09-12T06:17:48;63.72;;;40.50;;
22715;SDS011;11525;51.152;4.456;2023-09-12T06:20:14;58.03;;;36.60;;
22715;SDS011;11525;51.152;4.456;2023-09-12T06:22:40;61.53;;;40.03;;
22715;SDS011;11525;51.152;4.456;2023-09-12T06:25:06;60.38;;;40.60;;
22715;SDS011;11525;51.152;4.456;2023-09-12T06:27:31;57.80;;;38.35;;
22715;SDS011;11525;51.152;4.456;2023-09-12T06:29:57;61.58;;;40.47;;
22715;SDS011;11525;51.152;4.456;2023-09-12T06:32:23;62.97;;;40.47;;
22715;SDS011;11525;51.152;4.456;2023-09-12T06:34:49;56.55;;;37.10;;
22715;SDS011;11525;51.152;4.456;2023-09-12T06:37:14;57.13;;;37.88;;
22715;SDS011;11525;51.152;4.456;2023-09-12T06:39:40;54.63;;;38.08;;
22715;SDS011;11525;51.152;4.456;2023-09-12T06:42:06;54.17;;;36.05;;
22715;SDS011;11525;51.152;4.456;2023-09-12T06:44:32;58.20;;;37.92;;
22715;SDS011;11525;51.152;4.456;2023-09-12T06:46:58;53.95;;;37.20;;
22715;SDS011;11525;51.152;4.456;2023-09-12T06:49:23;53.45;;;37.33;;
22715;SDS011;11525;51.152;4.456;2023-09-12T06:51:49;60.08;;;38.05;;
22715;SDS011;11525;51.152;4.456;2023-09-12T06:54:15;52.78;;;33.95;;
22715;SDS011;11525;51.152;4.456;2023-09-12T06:56:40;48.05;;;34.97;;
22715;SDS011;11525;51.152;4.456;2023-09-12T06:59:07;44.03;;;32.30;;
22715;SDS011;11525;51.152;4.456;2023-09-12T07:01:33;41.15;;;29.60;;
22715;SDS011;11525;51.152;4.456;2023-09-12T07:03:59;48.90;;;31.45;;
22715;SDS011;11525;51.152;4.456;2023-09-12T07:06:25;47.72;;;32.28;;
22715;SDS011;11525;51.152;4.456;2023-09-12T07:08:50;55.40;;;37.33;;
22715;SDS011;11525;51.152;4.456;2023-09-12T07:11:16;43.80;;;30.45;;
22715;SDS011;11525;51.152;4.456;2023-09-12T07:13:42;42.08;;;28.35;;
22715;SDS011;11525;51.152;4.456;2023-09-12T07:16:07;46.60;;;31.63;;
22715;SDS011;11525;51.152;4.456;2023-09-12T07:18:33;42.80;;;29.52;;
22715;SDS011;11525;51.152;4.456;2023-09-12T07:20:59;51.90;;;31.92;;
22715;SDS011;11525;51.152;4.456;2023-09-12T07:23:26;46.95;;;31.63;;
22715;SDS011;11525;51.152;4.456;2023-09-12T07:25:52;49.13;;;30.58;;
22715;SDS011;11525;51.152;4.456;2023-09-12T07:28:20;44.15;;;29.92;;
22715;SDS011;11525;51.152;4.456;2023-09-12T07:30:46;48.03;;;32.50;;
22715;SDS011;11525;51.152;4.456;2023-09-12T07:33:12;51.97;;;32.70;;
22715;SDS011;11525;51.152;4.456;2023-09-12T07:35:40;50.38;;;34.38;;
22715;SDS011;11525;51.152;4.456;2023-09-12T07:38:06;56.30;;;35.25;;
22715;SDS011;11525;51.152;4.456;2023-09-12T07:40:32;56.78;;;35.05;;
22715;SDS011;11525;51.152;4.456;2023-09-12T07:42:57;54.75;;;35.63;;
22715;SDS011;11525;51.152;4.456;2023-09-12T07:45:23;58.25;;;37.65;;
22715;SDS011;11525;51.152;4.456;2023-09-12T07:47:49;54.90;;;37.05;;
22715;SDS011;11525;51.152;4.456;2023-09-12T07:50:15;55.65;;;37.85;;
22715;SDS011;11525;51.152;4.456;2023-09-12T07:52:41;56.80;;;36.63;;
22715;SDS011;11525;51.152;4.456;2023-09-12T07:55:06;59.40;;;37.90;;
22715;SDS011;11525;51.152;4.456;2023-09-12T07:57:33;51.53;;;36.35;;
22715;SDS011;11525;51.152;4.456;2023-09-12T07:59:59;54.13;;;35.63;;
22715;SDS011;11525;51.152;4.456;2023-09-12T08:02:26;59.10;;;37.50;;
22715;SDS011;11525;51.152;4.456;2023-09-12T08:04:51;58.40;;;37.50;;
22715;SDS011;11525;51.152;4.456;2023-09-12T08:07:18;60.17;;;34.63;;
22715;SDS011;11525;51.152;4.456;2023-09-12T08:10:02;46.95;;;29.02;;
22715;SDS011;11525;51.152;4.456;2023-09-12T08:12:29;52.08;;;33.08;;
22715;SDS011;11525;51.152;4.456;2023-09-12T08:14:54;50.72;;;30.80;;
22715;SDS011;11525;51.152;4.456;2023-09-12T08:17:22;55.97;;;34.00;;
22715;SDS011;11525;51.152;4.456;2023-09-12T08:19:48;54.47;;;33.70;;
22715;SDS011;11525;51.152;4.456;2023-09-12T08:22:14;64.93;;;35.50;;
22715;SDS011;11525;51.152;4.456;2023-09-12T08:24:40;62.30;;;35.20;;
22715;SDS011;11525;51.152;4.456;2023-09-12T08:27:06;56.03;;;35.03;;
22715;SDS011;11525;51.152;4.456;2023-09-12T08:29:34;56.28;;;33.72;;
22715;SDS011;11525;51.152;4.456;2023-09-12T08:32:00;56.28;;;33.05;;
22715;SDS011;11525;51.152;4.456;2023-09-12T08:34:26;52.47;;;35.50;;
22715;SDS011;11525;51.152;4.456;2023-09-12T08:36:52;57.78;;;38.03;;
22715;SDS011;11525;51.152;4.456;2023-09-12T08:39:19;59.55;;;33.90;;
22715;SDS011;11525;51.152;4.456;2023-09-12T08:41:49;53.60;;;33.00;;
22715;SDS011;11525;51.152;4.456;2023-09-12T08:44:15;59.90;;;38.03;;
22715;SDS011;11525;51.152;4.456;2023-09-12T08:46:41;57.22;;;36.05;;
22715;SDS011;11525;51.152;4.456;2023-09-12T08:49:09;69.95;;;37.95;;
22715;SDS011;11525;51.152;4.456;2023-09-12T08:51:36;61.28;;;36.83;;
22715;SDS011;11525;51.152;4.456;2023-09-12T08:54:02;52.08;;;34.88;;
22715;SDS011;11525;51.152;4.456;2023-09-12T08:56:32;66.88;;;42.22;;
22715;SDS011;11525;51.152;4.456;2023-09-12T08:58:59;63.10;;;41.50;;
22715;SDS011;11525;51.152;4.456;2023-09-12T09:01:26;64.30;;;39.67;;
22715;SDS011;11525;51.152;4.456;2023-09-12T09:03:56;61.90;;;40.38;;
22715;SDS011;11525;51.152;4.456;2023-09-12T09:06:22;68.93;;;41.80;;
22715;SDS011;11525;51.152;4.456;2023-09-12T09:08:50;57.80;;;38.55;;
22715;SDS011;11525;51.152;4.456;2023-09-12T09:11:16;61.65;;;39.38;;
22715;SDS011;11525;51.152;4.456;2023-09-12T09:13:42;70.65;;;40.47;;
22715;SDS011;11525;51.152;4.456;2023-09-12T09:16:11;63.88;;;38.13;;
22715;SDS011;11525;51.152;4.456;2023-09-12T09:21:22;58.22;;;37.40;;
22715;SDS011;11525;51.152;4.456;2023-09-12T09:23:53;58.83;;;37.13;;
22715;SDS011;11525;51.152;4.456;2023-09-12T09:26:19;58.42;;;34.65;;
22715;SDS011;11525;51.152;4.456;2023-09-12T09:28:45;59.00;;;38.40;;
22715;SDS011;11525;51.152;4.456;2023-09-12T09:31:27;61.97;;;39.05;;
22715;SDS011;11525;51.152;4.456;2023-09-12T09:33:53;54.83;;;37.88;;
22715;SDS011;11525;51.152;4.456;2023-09-12T09:36:20;57.75;;;40.45;;
22715;SDS011;11525;51.152;4.456;2023-09-12T09:38:45;53.30;;;36.90;;
22715;SDS011;11525;51.152;4.456;2023-09-12T09:41:11;48.28;;;34.72;;
22715;SDS011;11525;51.152;4.456;2023-09-12T09:43:37;53.20;;;36.25;;
22715;SDS011;11525;51.152;4.456;2023-09-12T09:46:03;49.53;;;36.55;;
22715;SDS011;11525;51.152;4.456;2023-09-12T09:48:28;51.05;;;36.25;;
22715;SDS011;11525;51.152;4.456;2023-09-12T09:51:02;59.05;;;37.88;;
22715;SDS011;11525;51.152;4.456;2023-09-12T09:53:29;51.13;;;36.97;;
22715;SDS011;11525;51.152;4.456;2023-09-12T09:56:15;49.30;;;36.13;;
22715;SDS011;11525;51.152;4.456;2023-09-12T09:58:47;53.55;;;36.47;;
22715;SDS011;11525;51.152;4.456;2023-09-12T10:01:18;43.22;;;30.60;;
22715;SDS011;11525;51.152;4.456;2023-09-12T10:03:57;50.50;;;35.10;;
22715;SDS011;11525;51.152;4.456;2023-09-12T10:06:24;50.17;;;35.20;;
22715;SDS011;11525;51.152;4.456;2023-09-12T10:08:53;47.47;;;32.47;;
22715;SDS011;11525;51.152;4.456;2023-09-12T10:11:23;41.10;;;29.70;;
22715;SDS011;11525;51.152;4.456;2023-09-12T10:13:55;35.53;;;27.27;;
22715;SDS011;11525;51.152;4.456;2023-09-12T10:17:04;39.65;;;27.67;;
22715;SDS011;11525;51.152;4.456;2023-09-12T10:19:22;37.35;;;26.10;;
22715;SDS011;11525;51.152;4.456;2023-09-12T10:24:45;32.90;;;24.15;;
22715;SDS011;11525;51.152;4.456;2023-09-12T10:27:12;30.00;;;21.70;;
22715;SDS011;11525;51.152;4.456;2023-09-12T10:29:39;36.45;;;24.05;;
22715;SDS011;11525;51.152;4.456;2023-09-12T10:32:05;26.55;;;20.35;;
22715;SDS011;11525;51.152;4.456;2023-09-12T10:34:31;25.60;;;19.52;;
22715;SDS011;11525;51.152;4.456;2023-09-12T10:36:57;28.40;;;19.55;;
22715;SDS011;11525;51.152;4.456;2023-09-12T10:39:29;28.00;;;20.83;;
22715;SDS011;11525;51.152;4.456;2023-09-12T10:41:57;25.42;;;20.00;;
22715;SDS011;11525;51.152;4.456;2023-09-12T10:44:24;24.83;;;17.38;;
22715;SDS011;11525;51.152;4.456;2023-09-12T10:46:51;18.23;;;14.07;;
22715;SDS011;11525;51.152;4.456;2023-09-12T10:49:21;16.42;;;12.18;;
22715;SDS011;11525;51.152;4.456;2023-09-12T10:51:47;21.95;;;16.10;;
22715;SDS011;11525;51.152;4.456;2023-09-12T10:54:23;18.33;;;12.38;;
22715;SDS011;11525;51.152;4.456;2023-09-12T10:57:09;13.43;;;10.70;;
22715;SDS011;11525;51.152;4.456;2023-09-12T11:00:08;20.20;;;13.45;;
22715;SDS011;11525;51.152;4.456;2023-09-12T11:02:31;16.52;;;11.98;;
22715;SDS011;11525;51.152;4.456;2023-09-12T11:05:05;21.63;;;12.70;;
22715;SDS011;11525;51.152;4.456;2023-09-12T11:12:39;16.38;;;13.25;;
22715;SDS011;11525;51.152;4.456;2023-09-12T11:15:06;22.70;;;14.75;;
22715;SDS011;11525;51.152;4.456;2023-09-12T11:17:37;19.77;;;13.55;;
22715;SDS011;11525;51.152;4.456;2023-09-12T11:20:03;17.70;;;12.10;;
22715;SDS011;11525;51.152;4.456;2023-09-12T11:22:35;20.08;;;12.70;;
22715;SDS011;11525;51.152;4.456;2023-09-12T11:25:04;17.83;;;13.43;;
22715;SDS011;11525;51.152;4.456;2023-09-12T11:28:26;26.55;;;13.95;;
22715;SDS011;11525;51.152;4.456;2023-09-12T11:30:30;19.30;;;14.18;;
22715;SDS011;11525;51.152;4.456;2023-09-12T11:32:57;21.10;;;13.07;;
22715;SDS011;11525;51.152;4.456;2023-09-12T11:35:24;18.80;;;13.88;;
22715;SDS011;11525;51.152;4.456;2023-09-12T11:37:57;24.17;;;13.68;;
22715;SDS011;11525;51.152;4.456;2023-09-12T11:40:25;18.88;;;13.45;;
22715;SDS011;11525;51.152;4.456;2023-09-12T11:42:57;15.85;;;11.75;;
22715;SDS011;11525;51.152;4.456;2023-09-12T11:45:23;15.30;;;11.68;;
22715;SDS011;11525;51.152;4.456;2023-09-12T11:47:49;18.55;;;12.40;;
22715;SDS011;11525;51.152;4.456;2023-09-12T11:53:00;16.42;;;12.02;;
22715;SDS011;11525;51.152;4.456;2023-09-12T11:55:48;18.85;;;12.88;;
22715;SDS011;11525;51.152;4.456;2023-09-12T11:58:18;14.57;;;10.52;;
22715;SDS011;11525;51.152;4.456;2023-09-12T12:00:45;15.02;;;11.20;;
22715;SDS011;11525;51.152;4.456;2023-09-12T12:03:16;15.55;;;11.75;;
22715;SDS011;11525;51.152;4.456;2023-09-12T12:05:42;13.68;;;10.98;;
22715;SDS011;11525;51.152;4.456;2023-09-12T12:08:09;13.27;;;9.70;;
22715;SDS011;11525;51.152;4.456;2023-09-12T12:10:36;12.55;;;8.85;;
22715;SDS011;11525;51.152;4.456;2023-09-12T12:13:04;13.57;;;8.32;;
22715;SDS011;11525;51.152;4.456;2023-09-12T12:15:30;10.30;;;8.13;;
22715;SDS011;11525;51.152;4.456;2023-09-12T12:17:56;12.15;;;8.38;;
22715;SDS011;11525;51.152;4.456;2023-09-12T12:20:22;11.02;;;7.90;;
22715;SDS011;11525;51.152;4.456;2023-09-12T12:22:48;11.60;;;7.82;;
22715;SDS011;11525;51.152;4.456;2023-09-12T12:25:17;11.63;;;8.07;;
22715;SDS011;11525;51.152;4.456;2023-09-12T12:27:43;11.82;;;8.05;;
22715;SDS011;11525;51.152;4.456;2023-09-12T12:30:10;12.98;;;8.35;;
22715;SDS011;11525;51.152;4.456;2023-09-12T12:32:41;11.43;;;8.30;;
22715;SDS011;11525;51.152;4.456;2023-09-12T12:35:07;10.32;;;7.20;;
22715;SDS011;11525;51.152;4.456;2023-09-12T12:37:35;14.25;;;8.88;;
22715;SDS011;11525;51.152;4.456;2023-09-12T12:40:02;11.05;;;7.90;;
22715;SDS011;11525;51.152;4.456;2023-09-12T12:42:34;9.93;;;6.93;;
22715;SDS011;11525;51.152;4.456;2023-09-12T12:45:25;10.75;;;7.03;;
22715;SDS011;11525;51.152;4.456;2023-09-12T12:47:51;8.85;;;6.68;;
22715;SDS011;11525;51.152;4.456;2023-09-12T12:50:22;10.05;;;7.22;;
22715;SDS011;11525;51.152;4.456;2023-09-12T12:52:48;8.88;;;6.60;;
22715;SDS011;11525;51.152;4.456;2023-09-12T12:55:14;20.33;;;7.43;;
22715;SDS011;11525;51.152;4.456;2023-09-12T12:57:42;9.93;;;6.32;;
22715;SDS011;11525;51.152;4.456;2023-09-12T13:00:09;8.88;;;6.38;;
22715;SDS011;11525;51.152;4.456;2023-09-12T13:02:40;11.00;;;6.35;;
22715;SDS011;11525;51.152;4.456;2023-09-12T13:05:29;8.63;;;6.22;;
22715;SDS011;11525;51.152;4.456;2023-09-12T13:07:54;8.18;;;6.32;;
22715;SDS011;11525;51.152;4.456;2023-09-12T13:10:20;9.25;;;6.22;;
22715;SDS011;11525;51.152;4.456;2023-09-12T13:12:47;7.50;;;6.30;;
22715;SDS011;11525;51.152;4.456;2023-09-12T13:15:13;10.68;;;6.22;;
22715;SDS011;11525;51.152;4.456;2023-09-12T13:17:40;9.73;;;6.45;;
22715;SDS011;11525;51.152;4.456;2023-09-12T13:20:07;8.95;;;6.40;;
22715;SDS011;11525;51.152;4.456;2023-09-12T13:22:36;11.30;;;5.75;;
22715;SDS011;11525;51.152;4.456;2023-09-12T13:25:02;9.60;;;6.00;;
22715;SDS011;11525;51.152;4.456;2023-09-12T13:27:28;8.93;;;6.15;;
22715;SDS011;11525;51.152;4.456;2023-09-12T13:29:54;16.58;;;6.45;;
22715;SDS011;11525;51.152;4.456;2023-09-12T13:32:20;8.05;;;6.00;;
22715;SDS011;11525;51.152;4.456;2023-09-12T13:34:46;5.38;;;4.45;;
22715;SDS011;11525;51.152;4.456;2023-09-12T13:37:11;5.90;;;3.92;;
22715;SDS011;11525;51.152;4.456;2023-09-12T13:39:37;8.48;;;4.88;;
22715;SDS011;11525;51.152;4.456;2023-09-12T13:42:06;7.00;;;4.22;;
22715;SDS011;11525;51.152;4.456;2023-09-12T13:44:33;7.50;;;4.78;;
22715;SDS011;11525;51.152;4.456;2023-09-12T13:46:59;8.02;;;4.18;;
22715;SDS011;11525;51.152;4.456;2023-09-12T13:49:24;11.35;;;4.45;;
22715;SDS011;11525;51.152;4.456;2023-09-12T13:51:50;10.38;;;5.32;;
22715;SDS011;11525;51.152;4.456;2023-09-12T13:54:16;6.68;;;5.00;;
22715;SDS011;11525;51.152;4.456;2023-09-12T13:56:41;9.32;;;4.93;;
22715;SDS011;11525;51.152;4.456;2023-09-12T13:59:09;8.18;;;4.53;;
22715;SDS011;11525;51.152;4.456;2023-09-12T14:01:35;11.07;;;4.85;;
22715;SDS011;11525;51.152;4.456;2023-09-12T14:04:04;6.15;;;4.35;;
22715;SDS011;11525;51.152;4.456;2023-09-12T14:06:30;8.40;;;6.20;;
22715;SDS011;11525;51.152;4.456;2023-09-12T14:08:57;10.02;;;6.28;;
22715;SDS011;11525;51.152;4.456;2023-09-12T14:11:23;9.18;;;5.32;;
22715;SDS011;11525;51.152;4.456;2023-09-12T14:13:48;10.50;;;7.18;;
22715;SDS011;11525;51.152;4.456;2023-09-12T14:16:14;11.00;;;7.32;;
22715;SDS011;11525;51.152;4.456;2023-09-12T14:18:40;14.95;;;7.13;;
22715;SDS011;11525;51.152;4.456;2023-09-12T14:21:06;14.15;;;6.93;;
22715;SDS011;11525;51.152;4.456;2023-09-12T14:23:32;8.73;;;7.40;;
22715;SDS011;11525;51.152;4.456;2023-09-12T14:25:57;14.35;;;8.15;;
22715;SDS011;11525;51.152;4.456;2023-09-12T14:28:23;15.35;;;7.70;;
22715;SDS011;11525;51.152;4.456;2023-09-12T14:30:49;8.98;;;5.90;;
22715;SDS011;11525;51.152;4.456;2023-09-12T14:33:15;10.23;;;6.72;;
22715;SDS011;11525;51.152;4.456;2023-09-12T14:35:42;10.32;;;7.07;;
22715;SDS011;11525;51.152;4.456;2023-09-12T14:38:08;15.15;;;7.75;;
22715;SDS011;11525;51.152;4.456;2023-09-12T14:40:34;14.18;;;7.18;;
22715;SDS011;11525;51.152;4.456;2023-09-12T14:43:00;14.18;;;7.43;;
22715;SDS011;11525;51.152;4.456;2023-09-12T14:45:29;14.98;;;9.65;;
22715;SDS011;11525;51.152;4.456;2023-09-12T14:47:55;21.17;;;14.18;;